sensor_id;sensor_type;location;lat;lon;timestamp;P1;durP1;ratioP1;P2;durP2;ratioP2
12259;SDS011;6192;47.742;9.262;2022-09-09T00:01:06;1.83;;;1.50;;
12259;SDS011;6192;47.742;9.262;2022-09-09T00:03:53;5.07;;;1.90;;
12259;SDS011;6192;47.742;9.262;2022-09-09T00:06:24;2.50;;;1.80;;
12259;SDS011;6192;47.742;9.262;2022-09-09T00:11:46;4.33;;;1.90;;
12259;SDS011;6192;47.742;9.262;2022-09-09T00:14:18;3.53;;;1.83;;
12259;SDS011;6192;47.742;9.262;2022-09-09T00:17:12;3.73;;;1.90;;
12259;SDS011;6192;47.742;9.262;2022-09-09T00:22:28;2.30;;;1.70;;
12259;SDS011;6192;47.742;9.262;2022-09-09T00:25:02;4.30;;;2.03;;
12259;SDS011;6192;47.742;9.262;2022-09-09T00:27:40;3.33;;;1.80;;
12259;SDS011;6192;47.742;9.262;2022-09-09T00:32:49;4.43;;;2.00;;
12259;SDS011;6192;47.742;9.262;2022-09-09T00:35:34;5.47;;;1.80;;
12259;SDS011;6192;47.742;9.262;2022-09-09T00:38:09;3.80;;;2.00;;
12259;SDS011;6192;47.742;9.262;2022-09-09T00:43:32;3.20;;;2.00;;
12259;SDS011;6192;47.742;9.262;2022-09-09T00:49:00;3.80;;;1.97;;
12259;SDS011;6192;47.742;9.262;2022-09-09T00:52:01;2.40;;;1.90;;
12259;SDS011;6192;47.742;9.262;2022-09-09T00:59:59;4.40;;;2.10;;
12259;SDS011;6192;47.742;9.262;2022-09-09T01:02:52;4.13;;;2.00;;
12259;SDS011;6192;47.742;9.262;2022-09-09T01:05:44;3.47;;;2.00;;
12259;SDS011;6192;47.742;9.262;2022-09-09T01:08:35;2.33;;;2.00;;
12259;SDS011;6192;47.742;9.262;2022-09-09T01:11:07;3.70;;;2.00;;
12259;SDS011;6192;47.742;9.262;2022-09-09T01:13:42;2.30;;;2.00;;
12259;SDS011;6192;47.742;9.262;2022-09-09T01:16:14;2.20;;;2.00;;
12259;SDS011;6192;47.742;9.262;2022-09-09T01:18:45;2.87;;;1.93;;
12259;SDS011;6192;47.742;9.262;2022-09-09T01:21:19;3.73;;;2.10;;
12259;SDS011;6192;47.742;9.262;2022-09-09T01:26:58;3.10;;;2.10;;
12259;SDS011;6192;47.742;9.262;2022-09-09T01:29:28;2.73;;;2.00;;
12259;SDS011;6192;47.742;9.262;2022-09-09T01:31:59;5.30;;;2.50;;
12259;SDS011;6192;47.742;9.262;2022-09-09T01:34:49;2.50;;;1.90;;
12259;SDS011;6192;47.742;9.262;2022-09-09T01:37:17;2.73;;;1.90;;
12259;SDS011;6192;47.742;9.262;2022-09-09T01:39:44;4.07;;;2.30;;
12259;SDS011;6192;47.742;9.262;2022-09-09T01:42:12;3.17;;;2.10;;
12259;SDS011;6192;47.742;9.262;2022-09-09T01:44:42;3.27;;;2.20;;
12259;SDS011;6192;47.742;9.262;2022-09-09T01:47:09;2.83;;;2.37;;
12259;SDS011;6192;47.742;9.262;2022-09-09T01:49:36;3.40;;;2.30;;
12259;SDS011;6192;47.742;9.262;2022-09-09T01:52:03;4.30;;;2.17;;
12259;SDS011;6192;47.742;9.262;2022-09-09T01:54:30;3.57;;;1.87;;
12259;SDS011;6192;47.742;9.262;2022-09-09T02:03:08;3.80;;;2.00;;
12259;SDS011;6192;47.742;9.262;2022-09-09T02:08:15;2.40;;;2.20;;
12259;SDS011;6192;47.742;9.262;2022-09-09T02:13:21;2.77;;;2.00;;
12259;SDS011;6192;47.742;9.262;2022-09-09T02:16:04;2.20;;;2.00;;
12259;SDS011;6192;47.742;9.262;2022-09-09T02:18:40;2.63;;;2.13;;
12259;SDS011;6192;47.742;9.262;2022-09-09T02:21:28;4.73;;;2.53;;
12259;SDS011;6192;47.742;9.262;2022-09-09T02:23:58;4.30;;;2.43;;
12259;SDS011;6192;47.742;9.262;2022-09-09T02:26:31;4.27;;;2.30;;
12259;SDS011;6192;47.742;9.262;2022-09-09T02:29:01;6.00;;;2.97;;
12259;SDS011;6192;47.742;9.262;2022-09-09T02:31:31;4.17;;;2.73;;
12259;SDS011;6192;47.742;9.262;2022-09-09T02:34:02;5.23;;;3.03;;
12259;SDS011;6192;47.742;9.262;2022-09-09T02:36:32;4.13;;;2.47;;
12259;SDS011;6192;47.742;9.262;2022-09-09T02:39:02;5.37;;;2.90;;
12259;SDS011;6192;47.742;9.262;2022-09-09T02:41:34;5.13;;;3.30;;
12259;SDS011;6192;47.742;9.262;2022-09-09T02:44:16;5.50;;;3.10;;
12259;SDS011;6192;47.742;9.262;2022-09-09T02:52:51;5.67;;;2.83;;
12259;SDS011;6192;47.742;9.262;2022-09-09T02:55:39;3.73;;;3.13;;
12259;SDS011;6192;47.742;9.262;2022-09-09T02:58:12;4.53;;;3.20;;
12259;SDS011;6192;47.742;9.262;2022-09-09T03:00:43;4.63;;;3.03;;
12259;SDS011;6192;47.742;9.262;2022-09-09T03:03:13;7.47;;;3.40;;
12259;SDS011;6192;47.742;9.262;2022-09-09T03:05:42;6.27;;;3.40;;
12259;SDS011;6192;47.742;9.262;2022-09-09T03:08:10;4.93;;;3.00;;
12259;SDS011;6192;47.742;9.262;2022-09-09T03:10:37;8.83;;;2.80;;
12259;SDS011;6192;47.742;9.262;2022-09-09T03:13:04;5.53;;;3.60;;
12259;SDS011;6192;47.742;9.262;2022-09-09T03:15:32;4.57;;;3.50;;
12259;SDS011;6192;47.742;9.262;2022-09-09T03:17:59;7.20;;;3.53;;
12259;SDS011;6192;47.742;9.262;2022-09-09T03:20:27;7.23;;;3.67;;
12259;SDS011;6192;47.742;9.262;2022-09-09T03:22:55;6.37;;;3.27;;
12259;SDS011;6192;47.742;9.262;2022-09-09T03:25:23;6.20;;;3.60;;
12259;SDS011;6192;47.742;9.262;2022-09-09T03:27:51;4.60;;;3.73;;
12259;SDS011;6192;47.742;9.262;2022-09-09T03:30:23;6.50;;;3.30;;
12259;SDS011;6192;47.742;9.262;2022-09-09T03:32:52;9.93;;;3.60;;
12259;SDS011;6192;47.742;9.262;2022-09-09T03:35:19;6.20;;;3.63;;
12259;SDS011;6192;47.742;9.262;2022-09-09T03:37:46;5.47;;;3.73;;
12259;SDS011;6192;47.742;9.262;2022-09-09T03:40:13;5.97;;;3.43;;
12259;SDS011;6192;47.742;9.262;2022-09-09T03:42:40;4.67;;;3.30;;
12259;SDS011;6192;47.742;9.262;2022-09-09T03:45:08;9.17;;;3.80;;
12259;SDS011;6192;47.742;9.262;2022-09-09T03:47:36;4.70;;;2.80;;
12259;SDS011;6192;47.742;9.262;2022-09-09T03:50:04;4.73;;;3.30;;
12259;SDS011;6192;47.742;9.262;2022-09-09T03:52:35;8.73;;;3.30;;
12259;SDS011;6192;47.742;9.262;2022-09-09T03:55:03;6.13;;;3.27;;
12259;SDS011;6192;47.742;9.262;2022-09-09T03:57:31;7.33;;;3.23;;
12259;SDS011;6192;47.742;9.262;2022-09-09T04:00:04;8.10;;;3.50;;
12259;SDS011;6192;47.742;9.262;2022-09-09T04:02:33;6.53;;;3.50;;
12259;SDS011;6192;47.742;9.262;2022-09-09T04:05:00;6.50;;;3.40;;
12259;SDS011;6192;47.742;9.262;2022-09-09T04:07:27;6.07;;;3.20;;
12259;SDS011;6192;47.742;9.262;2022-09-09T04:09:54;5.80;;;3.30;;
12259;SDS011;6192;47.742;9.262;2022-09-09T04:12:21;5.93;;;3.17;;
12259;SDS011;6192;47.742;9.262;2022-09-09T04:14:48;5.27;;;2.90;;
12259;SDS011;6192;47.742;9.262;2022-09-09T04:17:15;6.80;;;3.00;;
12259;SDS011;6192;47.742;9.262;2022-09-09T04:19:43;6.03;;;2.90;;
12259;SDS011;6192;47.742;9.262;2022-09-09T04:22:10;5.57;;;3.00;;
12259;SDS011;6192;47.742;9.262;2022-09-09T04:24:37;6.80;;;3.03;;
12259;SDS011;6192;47.742;9.262;2022-09-09T04:27:04;4.83;;;2.80;;
12259;SDS011;6192;47.742;9.262;2022-09-09T04:29:31;5.60;;;2.90;;
12259;SDS011;6192;47.742;9.262;2022-09-09T04:31:58;8.70;;;3.20;;
12259;SDS011;6192;47.742;9.262;2022-09-09T04:34:24;4.57;;;2.67;;
12259;SDS011;6192;47.742;9.262;2022-09-09T04:36:51;5.20;;;2.93;;
12259;SDS011;6192;47.742;9.262;2022-09-09T04:39:18;5.67;;;2.93;;
12259;SDS011;6192;47.742;9.262;2022-09-09T04:41:46;5.83;;;2.80;;
12259;SDS011;6192;47.742;9.262;2022-09-09T04:44:13;5.80;;;3.20;;
12259;SDS011;6192;47.742;9.262;2022-09-09T04:46:40;4.23;;;2.73;;
12259;SDS011;6192;47.742;9.262;2022-09-09T04:49:07;7.33;;;2.43;;
12259;SDS011;6192;47.742;9.262;2022-09-09T04:51:40;6.03;;;2.40;;
12259;SDS011;6192;47.742;9.262;2022-09-09T04:54:07;3.63;;;2.33;;
12259;SDS011;6192;47.742;9.262;2022-09-09T04:56:34;6.33;;;2.70;;
12259;SDS011;6192;47.742;9.262;2022-09-09T04:59:02;6.40;;;2.60;;
12259;SDS011;6192;47.742;9.262;2022-09-09T05:01:29;6.00;;;2.47;;
12259;SDS011;6192;47.742;9.262;2022-09-09T05:03:56;3.73;;;2.47;;
12259;SDS011;6192;47.742;9.262;2022-09-09T05:06:23;4.33;;;2.20;;
12259;SDS011;6192;47.742;9.262;2022-09-09T05:08:50;4.00;;;2.33;;
12259;SDS011;6192;47.742;9.262;2022-09-09T05:11:22;5.47;;;2.20;;
12259;SDS011;6192;47.742;9.262;2022-09-09T05:13:50;4.20;;;2.30;;
12259;SDS011;6192;47.742;9.262;2022-09-09T05:16:18;2.60;;;1.97;;
12259;SDS011;6192;47.742;9.262;2022-09-09T05:18:46;4.43;;;2.00;;
12259;SDS011;6192;47.742;9.262;2022-09-09T05:21:13;5.03;;;2.27;;
12259;SDS011;6192;47.742;9.262;2022-09-09T05:23:42;4.07;;;1.87;;
12259;SDS011;6192;47.742;9.262;2022-09-09T05:26:15;4.83;;;2.00;;
12259;SDS011;6192;47.742;9.262;2022-09-09T05:28:46;4.53;;;2.00;;
12259;SDS011;6192;47.742;9.262;2022-09-09T05:31:14;3.80;;;2.20;;
12259;SDS011;6192;47.742;9.262;2022-09-09T05:33:43;3.57;;;2.20;;
12259;SDS011;6192;47.742;9.262;2022-09-09T05:36:13;4.47;;;2.07;;
12259;SDS011;6192;47.742;9.262;2022-09-09T05:38:45;4.97;;;2.03;;
12259;SDS011;6192;47.742;9.262;2022-09-09T05:41:12;3.97;;;1.87;;
12259;SDS011;6192;47.742;9.262;2022-09-09T05:43:42;5.10;;;1.97;;
12259;SDS011;6192;47.742;9.262;2022-09-09T05:46:18;3.40;;;1.90;;
12259;SDS011;6192;47.742;9.262;2022-09-09T05:48:47;2.73;;;1.77;;
12259;SDS011;6192;47.742;9.262;2022-09-09T05:51:18;3.53;;;2.30;;
12259;SDS011;6192;47.742;9.262;2022-09-09T05:53:50;6.70;;;1.90;;
12259;SDS011;6192;47.742;9.262;2022-09-09T05:56:22;3.77;;;1.93;;
12259;SDS011;6192;47.742;9.262;2022-09-09T05:58:51;5.17;;;1.77;;
12259;SDS011;6192;47.742;9.262;2022-09-09T06:01:23;2.67;;;1.80;;
12259;SDS011;6192;47.742;9.262;2022-09-09T06:03:52;5.73;;;1.90;;
12259;SDS011;6192;47.742;9.262;2022-09-09T06:06:20;2.33;;;1.80;;
12259;SDS011;6192;47.742;9.262;2022-09-09T06:08:52;2.70;;;1.70;;
12259;SDS011;6192;47.742;9.262;2022-09-09T06:11:24;2.07;;;1.67;;
12259;SDS011;6192;47.742;9.262;2022-09-09T06:13:53;3.43;;;1.70;;
12259;SDS011;6192;47.742;9.262;2022-09-09T06:16:21;3.20;;;1.50;;
12259;SDS011;6192;47.742;9.262;2022-09-09T06:18:50;2.17;;;1.50;;
12259;SDS011;6192;47.742;9.262;2022-09-09T06:21:20;2.43;;;1.40;;
12259;SDS011;6192;47.742;9.262;2022-09-09T06:23:48;1.93;;;1.33;;
12259;SDS011;6192;47.742;9.262;2022-09-09T06:26:25;2.43;;;1.70;;
12259;SDS011;6192;47.742;9.262;2022-09-09T06:28:56;3.23;;;1.77;;
12259;SDS011;6192;47.742;9.262;2022-09-09T06:31:28;2.23;;;1.60;;
12259;SDS011;6192;47.742;9.262;2022-09-09T06:33:58;3.37;;;1.80;;
12259;SDS011;6192;47.742;9.262;2022-09-09T06:36:29;3.63;;;1.50;;
12259;SDS011;6192;47.742;9.262;2022-09-09T06:38:58;4.53;;;1.87;;
12259;SDS011;6192;47.742;9.262;2022-09-09T06:41:27;1.90;;;1.57;;
12259;SDS011;6192;47.742;9.262;2022-09-09T06:43:55;2.00;;;1.53;;
12259;SDS011;6192;47.742;9.262;2022-09-09T06:46:23;3.83;;;1.57;;
12259;SDS011;6192;47.742;9.262;2022-09-09T06:48:55;2.90;;;1.70;;
12259;SDS011;6192;47.742;9.262;2022-09-09T06:51:29;2.87;;;1.70;;
12259;SDS011;6192;47.742;9.262;2022-09-09T06:53:58;2.30;;;1.60;;
12259;SDS011;6192;47.742;9.262;2022-09-09T06:56:27;4.03;;;1.60;;
12259;SDS011;6192;47.742;9.262;2022-09-09T06:58:59;4.07;;;1.80;;
12259;SDS011;6192;47.742;9.262;2022-09-09T07:01:29;2.13;;;1.60;;
12259;SDS011;6192;47.742;9.262;2022-09-09T07:04:01;3.07;;;1.80;;
12259;SDS011;6192;47.742;9.262;2022-09-09T07:06:34;2.47;;;1.83;;
12259;SDS011;6192;47.742;9.262;2022-09-09T07:09:06;2.97;;;1.57;;
12259;SDS011;6192;47.742;9.262;2022-09-09T07:11:39;2.67;;;1.80;;
12259;SDS011;6192;47.742;9.262;2022-09-09T07:14:08;3.50;;;1.77;;
12259;SDS011;6192;47.742;9.262;2022-09-09T07:16:35;2.00;;;1.40;;
12259;SDS011;6192;47.742;9.262;2022-09-09T07:19:03;3.67;;;1.83;;
12259;SDS011;6192;47.742;9.262;2022-09-09T07:21:31;3.57;;;1.83;;
12259;SDS011;6192;47.742;9.262;2022-09-09T07:23:58;3.73;;;1.50;;
12259;SDS011;6192;47.742;9.262;2022-09-09T07:26:27;4.33;;;1.77;;
12259;SDS011;6192;47.742;9.262;2022-09-09T07:28:56;3.13;;;1.70;;
12259;SDS011;6192;47.742;9.262;2022-09-09T07:31:27;3.97;;;1.53;;
12259;SDS011;6192;47.742;9.262;2022-09-09T07:34:00;2.80;;;1.53;;
12259;SDS011;6192;47.742;9.262;2022-09-09T07:36:28;2.77;;;1.53;;
12259;SDS011;6192;47.742;9.262;2022-09-09T07:39:06;4.07;;;1.70;;
12259;SDS011;6192;47.742;9.262;2022-09-09T07:41:37;5.23;;;1.87;;
12259;SDS011;6192;47.742;9.262;2022-09-09T07:44:07;3.13;;;1.80;;
12259;SDS011;6192;47.742;9.262;2022-09-09T07:46:35;3.70;;;1.60;;
12259;SDS011;6192;47.742;9.262;2022-09-09T07:49:03;2.37;;;1.67;;
12259;SDS011;6192;47.742;9.262;2022-09-09T07:51:31;4.83;;;1.63;;
12259;SDS011;6192;47.742;9.262;2022-09-09T07:54:00;3.97;;;1.60;;
12259;SDS011;6192;47.742;9.262;2022-09-09T07:56:31;5.17;;;1.60;;
12259;SDS011;6192;47.742;9.262;2022-09-09T07:58:59;2.97;;;1.70;;
12259;SDS011;6192;47.742;9.262;2022-09-09T08:01:32;1.70;;;1.57;;
12259;SDS011;6192;47.742;9.262;2022-09-09T08:04:06;2.37;;;1.57;;
12259;SDS011;6192;47.742;9.262;2022-09-09T08:06:39;1.83;;;1.30;;
12259;SDS011;6192;47.742;9.262;2022-09-09T08:09:07;3.67;;;1.67;;
12259;SDS011;6192;47.742;9.262;2022-09-09T08:11:41;3.53;;;2.20;;
12259;SDS011;6192;47.742;9.262;2022-09-09T08:20:22;4.63;;;2.70;;
12259;SDS011;6192;47.742;9.262;2022-09-09T08:22:49;3.20;;;2.30;;
12259;SDS011;6192;47.742;9.262;2022-09-09T08:25:16;1.60;;;1.47;;
12259;SDS011;6192;47.742;9.262;2022-09-09T08:27:43;3.00;;;1.57;;
12259;SDS011;6192;47.742;9.262;2022-09-09T08:30:10;3.67;;;1.70;;
12259;SDS011;6192;47.742;9.262;2022-09-09T08:32:39;3.17;;;1.70;;
12259;SDS011;6192;47.742;9.262;2022-09-09T08:35:11;1.63;;;1.40;;
12259;SDS011;6192;47.742;9.262;2022-09-09T08:37:37;2.57;;;1.60;;
12259;SDS011;6192;47.742;9.262;2022-09-09T08:40:05;3.27;;;1.80;;
12259;SDS011;6192;47.742;9.262;2022-09-09T08:42:39;2.73;;;1.60;;
12259;SDS011;6192;47.742;9.262;2022-09-09T08:51:04;4.20;;;1.80;;
12259;SDS011;6192;47.742;9.262;2022-09-09T08:53:38;3.17;;;1.90;;
12259;SDS011;6192;47.742;9.262;2022-09-09T08:56:14;1.83;;;1.50;;
12259;SDS011;6192;47.742;9.262;2022-09-09T08:58:47;3.30;;;1.80;;
12259;SDS011;6192;47.742;9.262;2022-09-09T09:01:25;2.10;;;1.67;;
12259;SDS011;6192;47.742;9.262;2022-09-09T09:10:02;3.83;;;2.70;;
12259;SDS011;6192;47.742;9.262;2022-09-09T09:12:50;5.73;;;4.00;;
12259;SDS011;6192;47.742;9.262;2022-09-09T09:15:25;3.83;;;1.80;;
12259;SDS011;6192;47.742;9.262;2022-09-09T09:17:58;1.63;;;1.50;;
12259;SDS011;6192;47.742;9.262;2022-09-09T09:20:38;2.53;;;1.77;;
12259;SDS011;6192;47.742;9.262;2022-09-09T09:23:13;3.03;;;1.90;;
12259;SDS011;6192;47.742;9.262;2022-09-09T09:25:45;2.80;;;1.80;;
12259;SDS011;6192;47.742;9.262;2022-09-09T09:28:13;2.83;;;2.00;;
12259;SDS011;6192;47.742;9.262;2022-09-09T09:30:49;4.00;;;1.87;;
12259;SDS011;6192;47.742;9.262;2022-09-09T09:33:23;3.33;;;1.90;;
12259;SDS011;6192;47.742;9.262;2022-09-09T09:35:56;2.07;;;1.60;;
12259;SDS011;6192;47.742;9.262;2022-09-09T09:38:24;3.93;;;1.80;;
12259;SDS011;6192;47.742;9.262;2022-09-09T09:41:13;4.23;;;2.37;;
12259;SDS011;6192;47.742;9.262;2022-09-09T09:43:40;4.07;;;2.40;;
12259;SDS011;6192;47.742;9.262;2022-09-09T09:46:18;3.97;;;1.93;;
12259;SDS011;6192;47.742;9.262;2022-09-09T09:48:59;2.90;;;2.20;;
12259;SDS011;6192;47.742;9.262;2022-09-09T09:51:32;3.20;;;1.60;;
12259;SDS011;6192;47.742;9.262;2022-09-09T09:54:14;2.43;;;1.50;;
12259;SDS011;6192;47.742;9.262;2022-09-09T09:56:49;3.70;;;2.03;;
12259;SDS011;6192;47.742;9.262;2022-09-09T09:59:20;3.33;;;1.70;;
12259;SDS011;6192;47.742;9.262;2022-09-09T10:02:18;3.43;;;2.00;;
12259;SDS011;6192;47.742;9.262;2022-09-09T10:04:47;4.17;;;1.90;;
12259;SDS011;6192;47.742;9.262;2022-09-09T10:07:18;3.50;;;1.90;;
12259;SDS011;6192;47.742;9.262;2022-09-09T10:09:48;4.20;;;1.93;;
12259;SDS011;6192;47.742;9.262;2022-09-09T10:17:38;3.23;;;1.67;;
12259;SDS011;6192;47.742;9.262;2022-09-09T10:29:05;4.43;;;1.80;;
12259;SDS011;6192;47.742;9.262;2022-09-09T10:31:58;4.17;;;1.80;;
12259;SDS011;6192;47.742;9.262;2022-09-09T10:34:58;3.67;;;1.50;;
12259;SDS011;6192;47.742;9.262;2022-09-09T10:40:32;2.67;;;1.57;;
12259;SDS011;6192;47.742;9.262;2022-09-09T10:43:09;2.93;;;1.40;;
12259;SDS011;6192;47.742;9.262;2022-09-09T10:54:22;5.30;;;1.73;;
12259;SDS011;6192;47.742;9.262;2022-09-09T10:56:52;2.43;;;1.37;;
12259;SDS011;6192;47.742;9.262;2022-09-09T10:59:26;2.93;;;1.40;;
12259;SDS011;6192;47.742;9.262;2022-09-09T11:02:14;3.47;;;1.57;;
12259;SDS011;6192;47.742;9.262;2022-09-09T11:04:51;2.83;;;1.50;;
12259;SDS011;6192;47.742;9.262;2022-09-09T11:07:34;2.53;;;1.30;;
12259;SDS011;6192;47.742;9.262;2022-09-09T11:10:16;3.47;;;2.60;;
12259;SDS011;6192;47.742;9.262;2022-09-09T11:12:44;5.90;;;4.60;;
12259;SDS011;6192;47.742;9.262;2022-09-09T11:15:19;3.63;;;1.90;;
12259;SDS011;6192;47.742;9.262;2022-09-09T11:17:50;3.73;;;1.67;;
12259;SDS011;6192;47.742;9.262;2022-09-09T11:20:22;3.03;;;1.63;;
12259;SDS011;6192;47.742;9.262;2022-09-09T11:23:13;2.70;;;1.40;;
12259;SDS011;6192;47.742;9.262;2022-09-09T11:25:48;3.13;;;1.40;;
12259;SDS011;6192;47.742;9.262;2022-09-09T11:36:59;3.10;;;1.40;;
12259;SDS011;6192;47.742;9.262;2022-09-09T11:42:38;2.03;;;1.30;;
12259;SDS011;6192;47.742;9.262;2022-09-09T11:45:08;4.47;;;1.60;;
12259;SDS011;6192;47.742;9.262;2022-09-09T11:47:57;3.10;;;1.30;;
12259;SDS011;6192;47.742;9.262;2022-09-09T11:53:03;3.87;;;1.50;;
12259;SDS011;6192;47.742;9.262;2022-09-09T11:55:59;3.60;;;1.47;;
12259;SDS011;6192;47.742;9.262;2022-09-09T11:58:39;4.40;;;1.70;;
12259;SDS011;6192;47.742;9.262;2022-09-09T12:01:27;2.90;;;1.30;;
12259;SDS011;6192;47.742;9.262;2022-09-09T12:06:58;2.33;;;1.10;;
12259;SDS011;6192;47.742;9.262;2022-09-09T12:09:42;3.50;;;1.30;;
12259;SDS011;6192;47.742;9.262;2022-09-09T12:14:38;1.70;;;1.27;;
12259;SDS011;6192;47.742;9.262;2022-09-09T12:17:19;2.83;;;1.20;;
12259;SDS011;6192;47.742;9.262;2022-09-09T12:19:47;2.20;;;1.20;;
12259;SDS011;6192;47.742;9.262;2022-09-09T12:22:24;1.87;;;1.20;;
12259;SDS011;6192;47.742;9.262;2022-09-09T12:28:11;1.60;;;1.00;;
12259;SDS011;6192;47.742;9.262;2022-09-09T12:33:17;1.80;;;1.27;;
12259;SDS011;6192;47.742;9.262;2022-09-09T12:35:47;2.83;;;1.50;;
12259;SDS011;6192;47.742;9.262;2022-09-09T12:38:34;2.03;;;1.17;;
12259;SDS011;6192;47.742;9.262;2022-09-09T12:41:03;2.37;;;1.17;;
12259;SDS011;6192;47.742;9.262;2022-09-09T12:43:30;2.17;;;1.30;;
12259;SDS011;6192;47.742;9.262;2022-09-09T12:46:03;2.53;;;1.27;;
12259;SDS011;6192;47.742;9.262;2022-09-09T12:48:41;2.03;;;1.20;;
12259;SDS011;6192;47.742;9.262;2022-09-09T12:51:19;2.70;;;1.57;;
12259;SDS011;6192;47.742;9.262;2022-09-09T12:53:51;2.70;;;1.30;;
12259;SDS011;6192;47.742;9.262;2022-09-09T12:56:20;2.67;;;1.30;;
12259;SDS011;6192;47.742;9.262;2022-09-09T12:58:51;1.90;;;1.20;;
12259;SDS011;6192;47.742;9.262;2022-09-09T13:03:55;1.67;;;1.10;;
12259;SDS011;6192;47.742;9.262;2022-09-09T13:06:23;5.50;;;1.30;;
12259;SDS011;6192;47.742;9.262;2022-09-09T13:08:55;3.13;;;1.20;;
12259;SDS011;6192;47.742;9.262;2022-09-09T13:11:44;2.37;;;1.13;;
12259;SDS011;6192;47.742;9.262;2022-09-09T13:14:18;2.07;;;1.30;;
12259;SDS011;6192;47.742;9.262;2022-09-09T13:16:54;3.03;;;1.60;;
12259;SDS011;6192;47.742;9.262;2022-09-09T13:19:23;2.87;;;1.30;;
12259;SDS011;6192;47.742;9.262;2022-09-09T13:21:55;2.60;;;1.27;;
12259;SDS011;6192;47.742;9.262;2022-09-09T13:27:00;2.57;;;1.20;;
12259;SDS011;6192;47.742;9.262;2022-09-09T13:29:30;1.87;;;1.20;;
12259;SDS011;6192;47.742;9.262;2022-09-09T13:32:04;2.93;;;1.20;;
12259;SDS011;6192;47.742;9.262;2022-09-09T13:34:34;3.90;;;1.30;;
12259;SDS011;6192;47.742;9.262;2022-09-09T13:37:02;2.80;;;1.40;;
12259;SDS011;6192;47.742;9.262;2022-09-09T13:39:32;3.30;;;1.60;;
12259;SDS011;6192;47.742;9.262;2022-09-09T13:42:01;2.70;;;1.30;;
12259;SDS011;6192;47.742;9.262;2022-09-09T13:44:31;2.00;;;1.20;;
12259;SDS011;6192;47.742;9.262;2022-09-09T13:49:40;1.93;;;1.40;;
12259;SDS011;6192;47.742;9.262;2022-09-09T13:54:40;2.77;;;1.40;;
12259;SDS011;6192;47.742;9.262;2022-09-09T13:57:14;2.37;;;1.30;;
12259;SDS011;6192;47.742;9.262;2022-09-09T13:59:46;4.43;;;1.73;;
12259;SDS011;6192;47.742;9.262;2022-09-09T14:02:30;2.20;;;1.50;;
12259;SDS011;6192;47.742;9.262;2022-09-09T14:05:00;2.97;;;1.30;;
12259;SDS011;6192;47.742;9.262;2022-09-09T14:07:27;1.93;;;1.40;;
12259;SDS011;6192;47.742;9.262;2022-09-09T14:09:57;2.30;;;1.20;;
12259;SDS011;6192;47.742;9.262;2022-09-09T14:12:27;2.83;;;1.40;;
12259;SDS011;6192;47.742;9.262;2022-09-09T14:14:56;2.80;;;1.40;;
12259;SDS011;6192;47.742;9.262;2022-09-09T14:17:23;3.97;;;1.60;;
12259;SDS011;6192;47.742;9.262;2022-09-09T14:19:51;1.87;;;1.27;;
12259;SDS011;6192;47.742;9.262;2022-09-09T14:22:18;1.97;;;1.20;;
12259;SDS011;6192;47.742;9.262;2022-09-09T14:24:45;3.23;;;1.20;;
12259;SDS011;6192;47.742;9.262;2022-09-09T14:27:12;2.87;;;1.13;;
12259;SDS011;6192;47.742;9.262;2022-09-09T14:29:39;2.47;;;1.07;;
12259;SDS011;6192;47.742;9.262;2022-09-09T14:32:06;2.73;;;1.20;;
12259;SDS011;6192;47.742;9.262;2022-09-09T14:34:38;2.00;;;1.40;;
12259;SDS011;6192;47.742;9.262;2022-09-09T14:37:04;3.27;;;1.80;;
12259;SDS011;6192;47.742;9.262;2022-09-09T14:39:31;2.13;;;1.50;;
12259;SDS011;6192;47.742;9.262;2022-09-09T14:41:58;4.00;;;1.60;;
12259;SDS011;6192;47.742;9.262;2022-09-09T14:44:25;2.27;;;1.40;;
12259;SDS011;6192;47.742;9.262;2022-09-09T14:46:55;2.97;;;1.63;;
12259;SDS011;6192;47.742;9.262;2022-09-09T14:49:21;2.70;;;1.40;;
12259;SDS011;6192;47.742;9.262;2022-09-09T14:51:48;4.77;;;1.70;;
12259;SDS011;6192;47.742;9.262;2022-09-09T14:54:15;5.10;;;1.50;;
12259;SDS011;6192;47.742;9.262;2022-09-09T14:56:42;3.17;;;1.70;;
12259;SDS011;6192;47.742;9.262;2022-09-09T14:59:09;2.30;;;1.50;;
12259;SDS011;6192;47.742;9.262;2022-09-09T15:01:36;3.40;;;1.50;;
12259;SDS011;6192;47.742;9.262;2022-09-09T15:04:04;3.33;;;1.50;;
12259;SDS011;6192;47.742;9.262;2022-09-09T15:06:33;2.00;;;1.60;;
12259;SDS011;6192;47.742;9.262;2022-09-09T15:09:03;5.37;;;1.80;;
12259;SDS011;6192;47.742;9.262;2022-09-09T15:11:32;2.23;;;1.40;;
12259;SDS011;6192;47.742;9.262;2022-09-09T15:14:04;2.53;;;1.63;;
12259;SDS011;6192;47.742;9.262;2022-09-09T15:16:32;3.33;;;1.77;;
12259;SDS011;6192;47.742;9.262;2022-09-09T15:19:00;3.40;;;1.53;;
12259;SDS011;6192;47.742;9.262;2022-09-09T15:21:30;2.80;;;1.60;;
12259;SDS011;6192;47.742;9.262;2022-09-09T15:23:58;2.00;;;1.50;;
12259;SDS011;6192;47.742;9.262;2022-09-09T15:26:26;3.93;;;1.60;;
12259;SDS011;6192;47.742;9.262;2022-09-09T15:28:53;4.67;;;1.77;;
12259;SDS011;6192;47.742;9.262;2022-09-09T15:31:21;3.87;;;1.47;;
12259;SDS011;6192;47.742;9.262;2022-09-09T15:33:51;3.27;;;1.60;;
12259;SDS011;6192;47.742;9.262;2022-09-09T15:36:28;3.17;;;1.40;;
12259;SDS011;6192;47.742;9.262;2022-09-09T15:39:00;2.67;;;1.40;;
12259;SDS011;6192;47.742;9.262;2022-09-09T15:41:27;2.17;;;1.53;;
12259;SDS011;6192;47.742;9.262;2022-09-09T15:43:55;4.37;;;1.70;;
12259;SDS011;6192;47.742;9.262;2022-09-09T15:49:09;4.37;;;1.60;;
12259;SDS011;6192;47.742;9.262;2022-09-09T15:51:55;3.33;;;1.70;;
12259;SDS011;6192;47.742;9.262;2022-09-09T15:54:33;1.70;;;1.20;;
12259;SDS011;6192;47.742;9.262;2022-09-09T15:57:03;2.13;;;1.40;;
12259;SDS011;6192;47.742;9.262;2022-09-09T15:59:31;2.30;;;1.60;;
12259;SDS011;6192;47.742;9.262;2022-09-09T16:01:59;2.93;;;1.40;;
12259;SDS011;6192;47.742;9.262;2022-09-09T16:04:27;4.37;;;1.57;;
12259;SDS011;6192;47.742;9.262;2022-09-09T16:06:59;2.10;;;1.80;;
12259;SDS011;6192;47.742;9.262;2022-09-09T16:09:30;2.83;;;1.63;;
12259;SDS011;6192;47.742;9.262;2022-09-09T16:12:00;2.83;;;1.63;;
12259;SDS011;6192;47.742;9.262;2022-09-09T16:14:28;2.57;;;1.40;;
12259;SDS011;6192;47.742;9.262;2022-09-09T16:17:00;2.93;;;1.57;;
12259;SDS011;6192;47.742;9.262;2022-09-09T16:19:27;2.90;;;1.40;;
12259;SDS011;6192;47.742;9.262;2022-09-09T16:21:54;2.43;;;1.27;;
12259;SDS011;6192;47.742;9.262;2022-09-09T16:24:21;1.77;;;1.50;;
12259;SDS011;6192;47.742;9.262;2022-09-09T16:26:49;2.73;;;1.60;;
12259;SDS011;6192;47.742;9.262;2022-09-09T16:29:18;2.80;;;1.50;;
12259;SDS011;6192;47.742;9.262;2022-09-09T16:31:45;2.67;;;1.27;;
12259;SDS011;6192;47.742;9.262;2022-09-09T16:34:13;3.13;;;1.33;;
12259;SDS011;6192;47.742;9.262;2022-09-09T16:36:42;2.93;;;1.30;;
12259;SDS011;6192;47.742;9.262;2022-09-09T16:39:10;3.97;;;2.30;;
12259;SDS011;6192;47.742;9.262;2022-09-09T16:41:39;2.70;;;1.57;;
12259;SDS011;6192;47.742;9.262;2022-09-09T16:44:08;3.30;;;1.70;;
12259;SDS011;6192;47.742;9.262;2022-09-09T16:46:40;2.60;;;1.30;;
12259;SDS011;6192;47.742;9.262;2022-09-09T16:49:09;2.60;;;1.50;;
12259;SDS011;6192;47.742;9.262;2022-09-09T16:51:38;1.97;;;1.30;;
12259;SDS011;6192;47.742;9.262;2022-09-09T16:54:10;3.90;;;1.30;;
12259;SDS011;6192;47.742;9.262;2022-09-09T16:56:38;2.27;;;1.10;;
12259;SDS011;6192;47.742;9.262;2022-09-09T16:59:09;2.10;;;1.00;;
12259;SDS011;6192;47.742;9.262;2022-09-09T17:01:47;3.70;;;0.90;;
12259;SDS011;6192;47.742;9.262;2022-09-09T17:04:24;1.40;;;0.83;;
12259;SDS011;6192;47.742;9.262;2022-09-09T17:06:54;2.20;;;0.90;;
12259;SDS011;6192;47.742;9.262;2022-09-09T17:09:24;2.67;;;0.93;;
12259;SDS011;6192;47.742;9.262;2022-09-09T17:11:54;1.50;;;0.90;;
12259;SDS011;6192;47.742;9.262;2022-09-09T17:14:21;2.07;;;0.90;;
12259;SDS011;6192;47.742;9.262;2022-09-09T17:16:48;2.33;;;0.80;;
12259;SDS011;6192;47.742;9.262;2022-09-09T17:19:16;1.57;;;0.90;;
12259;SDS011;6192;47.742;9.262;2022-09-09T17:21:42;2.50;;;1.00;;
12259;SDS011;6192;47.742;9.262;2022-09-09T17:24:29;7.03;;;4.27;;
12259;SDS011;6192;47.742;9.262;2022-09-09T17:26:56;6.30;;;5.70;;
12259;SDS011;6192;47.742;9.262;2022-09-09T17:29:24;3.77;;;1.43;;